sensor_id;sensor_type;location;lat;lon;timestamp;pressure;altitude;pressure_sealevel;temperature;humidity
73651;BME280;61944;52.538;6.108;2023-02-28T00:02:24;103143.75;;;2.95;100.00
73651;BME280;61944;52.538;6.108;2023-02-28T00:04:49;103142.06;;;2.94;100.00
73651;BME280;61944;52.538;6.108;2023-02-28T00:07:18;103137.09;;;2.96;100.00
73651;BME280;61944;52.538;6.108;2023-02-28T00:09:44;103134.34;;;3.01;100.00
73651;BME280;61944;52.538;6.108;2023-02-28T00:12:09;103137.66;;;2.98;100.00
73651;BME280;61944;52.538;6.108;2023-02-28T00:14:35;103141.50;;;2.92;100.00
73651;BME280;61944;52.538;6.108;2023-02-28T00:17:00;103139.03;;;2.96;100.00
73651;BME280;61944;52.538;6.108;2023-02-28T00:19:26;103141.00;;;3.00;100.00
73651;BME280;61944;52.538;6.108;2023-02-28T00:21:51;103132.97;;;2.99;100.00
73651;BME280;61944;52.538;6.108;2023-02-28T00:24:16;103142.94;;;3.00;100.00
73651;BME280;61944;52.538;6.108;2023-02-28T00:26:42;103142.38;;;2.98;100.00
73651;BME280;61944;52.538;6.108;2023-02-28T00:29:07;103134.59;;;2.90;100.00
73651;BME280;61944;52.538;6.108;2023-02-28T00:31:32;103140.38;;;2.88;100.00
73651;BME280;61944;52.538;6.108;2023-02-28T00:33:58;103141.75;;;2.80;100.00
73651;BME280;61944;52.538;6.108;2023-02-28T00:36:23;103138.66;;;2.72;100.00
73651;BME280;61944;52.538;6.108;2023-02-28T00:38:48;103137.00;;;2.76;100.00
73651;BME280;61944;52.538;6.108;2023-02-28T00:41:14;103140.34;;;2.73;100.00
73651;BME280;61944;52.538;6.108;2023-02-28T00:43:40;103135.09;;;2.76;100.00
73651;BME280;61944;52.538;6.108;2023-02-28T00:46:05;103140.94;;;2.85;100.00
73651;BME280;61944;52.538;6.108;2023-02-28T00:48:31;103134.84;;;2.83;100.00
73651;BME280;61944;52.538;6.108;2023-02-28T00:50:57;103131.53;;;2.86;100.00
73651;BME280;61944;52.538;6.108;2023-02-28T00:53:22;103139.31;;;2.94;100.00
73651;BME280;61944;52.538;6.108;2023-02-28T00:55:49;103141.81;;;3.01;100.00
73651;BME280;61944;52.538;6.108;2023-02-28T00:58:14;103142.13;;;2.99;100.00
73651;BME280;61944;52.538;6.108;2023-02-28T01:00:40;103144.03;;;2.99;100.00
73651;BME280;61944;52.538;6.108;2023-02-28T01:03:05;103131.31;;;2.98;100.00
73651;BME280;61944;52.538;6.108;2023-02-28T01:05:30;103139.88;;;2.96;100.00
73651;BME280;61944;52.538;6.108;2023-02-28T01:07:56;103147.09;;;2.97;100.00
73651;BME280;61944;52.538;6.108;2023-02-28T01:10:21;103136.53;;;2.94;100.00
73651;BME280;61944;52.538;6.108;2023-02-28T01:12:47;103142.38;;;2.98;100.00
73651;BME280;61944;52.538;6.108;2023-02-28T01:15:12;103129.94;;;3.00;100.00
73651;BME280;61944;52.538;6.108;2023-02-28T01:17:37;103121.63;;;3.00;100.00
73651;BME280;61944;52.538;6.108;2023-02-28T01:20:03;103130.50;;;3.02;100.00
73651;BME280;61944;52.538;6.108;2023-02-28T01:22:29;103126.03;;;3.01;100.00
73651;BME280;61944;52.538;6.108;2023-02-28T01:24:54;103133.56;;;3.06;100.00
73651;BME280;61944;52.538;6.108;2023-02-28T01:27:20;103133.25;;;3.08;100.00
73651;BME280;61944;52.538;6.108;2023-02-28T01:29:45;103122.19;;;3.08;100.00
73651;BME280;61944;52.538;6.108;2023-02-28T01:32:10;103120.00;;;3.04;100.00
73651;BME280;61944;52.538;6.108;2023-02-28T01:34:36;103124.41;;;3.05;100.00
73651;BME280;61944;52.538;6.108;2023-02-28T01:37:01;103117.22;;;3.04;100.00
73651;BME280;61944;52.538;6.108;2023-02-28T01:39:28;103114.75;;;3.08;100.00
73651;BME280;61944;52.538;6.108;2023-02-28T01:41:54;103113.38;;;3.11;100.00
73651;BME280;61944;52.538;6.108;2023-02-28T01:47:28;103106.16;;;3.10;100.00
73651;BME280;61944;52.538;6.108;2023-02-28T01:49:54;103118.91;;;3.11;100.00
73651;BME280;61944;52.538;6.108;2023-02-28T01:52:20;103113.38;;;3.11;100.00
73651;BME280;61944;52.538;6.108;2023-02-28T01:54:51;103100.91;;;3.08;100.00
73651;BME280;61944;52.538;6.108;2023-02-28T01:57:20;103107.84;;;3.11;100.00
73651;BME280;61944;52.538;6.108;2023-02-28T02:00:01;103103.41;;;3.15;100.00
73651;BME280;61944;52.538;6.108;2023-02-28T02:02:33;103107.28;;;3.14;100.00
73651;BME280;61944;52.538;6.108;2023-02-28T02:05:04;103111.47;;;3.16;100.00
73651;BME280;61944;52.538;6.108;2023-02-28T02:07:33;103116.69;;;3.13;100.00
73651;BME280;61944;52.538;6.108;2023-02-28T02:10:31;103102.28;;;3.11;100.00
73651;BME280;61944;52.538;6.108;2023-02-28T02:15:54;103109.25;;;3.18;100.00
73651;BME280;61944;52.538;6.108;2023-02-28T02:18:37;103110.59;;;3.16;100.00
73651;BME280;61944;52.538;6.108;2023-02-28T02:35:16;103100.78;;;2.72;100.00
73651;BME280;61944;52.538;6.108;2023-02-28T02:41:03;103126.63;;;3.09;100.00
73651;BME280;61944;52.538;6.108;2023-02-28T02:43:34;103112.22;;;2.96;100.00
73651;BME280;61944;52.538;6.108;2023-02-28T02:46:29;103118.59;;;3.02;100.00
73651;BME280;61944;52.538;6.108;2023-02-28T02:48:57;103121.06;;;2.98;100.00
73651;BME280;61944;52.538;6.108;2023-02-28T02:51:25;103124.13;;;3.07;100.00
73651;BME280;61944;52.538;6.108;2023-02-28T02:53:56;103129.94;;;3.00;100.00
73651;BME280;61944;52.538;6.108;2023-02-28T02:56:27;103122.19;;;3.02;100.00
73651;BME280;61944;52.538;6.108;2023-02-28T02:58:57;103120.25;;;3.03;100.00
73651;BME280;61944;52.538;6.108;2023-02-28T03:01:26;103126.63;;;3.09;100.00
73651;BME280;61944;52.538;6.108;2023-02-28T03:04:20;103124.13;;;3.07;100.00
73651;BME280;61944;52.538;6.108;2023-02-28T03:06:46;103118.31;;;3.03;100.00
73651;BME280;61944;52.538;6.108;2023-02-28T03:09:11;103122.75;;;3.10;100.00
73651;BME280;61944;52.538;6.108;2023-02-28T03:11:37;103126.66;;;3.14;100.00
73651;BME280;61944;52.538;6.108;2023-02-28T03:14:25;103127.75;;;3.13;100.00
73651;BME280;61944;52.538;6.108;2023-02-28T03:19:51;103125.25;;;3.06;100.00
73651;BME280;61944;52.538;6.108;2023-02-28T03:22:23;103120.00;;;3.04;100.00
73651;BME280;61944;52.538;6.108;2023-02-28T03:27:28;103112.81;;;3.14;100.00
73651;BME280;61944;52.538;6.108;2023-02-28T03:30:09;103116.13;;;3.16;100.00
73651;BME280;61944;52.538;6.108;2023-02-28T03:33:12;103112.28;;;3.17;100.00
73651;BME280;61944;52.538;6.108;2023-02-28T03:35:43;103116.69;;;3.13;100.00
73651;BME280;61944;52.538;6.108;2023-02-28T03:38:22;103117.78;;;3.12;100.00
73651;BME280;61944;52.538;6.108;2023-02-28T03:41:00;103118.91;;;3.11;100.00
73651;BME280;61944;52.538;6.108;2023-02-28T03:43:30;103120.53;;;3.12;100.00
73651;BME280;61944;52.538;6.108;2023-02-28T03:45:59;103124.16;;;3.17;100.00
73651;BME280;61944;52.538;6.108;2023-02-28T03:48:44;103122.53;;;3.16;100.00
73651;BME280;61944;52.538;6.108;2023-02-28T03:51:15;103124.44;;;3.16;100.00
73651;BME280;61944;52.538;6.108;2023-02-28T03:53:46;103116.69;;;3.18;100.00
73651;BME280;61944;52.538;6.108;2023-02-28T03:56:22;103125.00;;;3.18;100.00
73651;BME280;61944;52.538;6.108;2023-02-28T03:59:02;103113.66;;;3.14;100.00
73651;BME280;61944;52.538;6.108;2023-02-28T04:01:39;103111.72;;;3.15;100.00
73651;BME280;61944;52.538;6.108;2023-02-28T04:04:07;103115.31;;;3.15;100.00
73651;BME280;61944;52.538;6.108;2023-02-28T04:06:33;103117.81;;;3.17;100.00
73651;BME280;61944;52.538;6.108;2023-02-28T04:08:59;103115.31;;;3.15;100.00
73651;BME280;61944;52.538;6.108;2023-02-28T04:11:33;103117.00;;;3.16;100.00
73651;BME280;61944;52.538;6.108;2023-02-28T04:14:00;103114.78;;;3.18;100.00
73651;BME280;61944;52.538;6.108;2023-02-28T04:16:25;103105.63;;;3.13;100.00
73651;BME280;61944;52.538;6.108;2023-02-28T04:18:50;103107.53;;;3.02;100.00
73651;BME280;61944;52.538;6.108;2023-02-28T04:21:16;103118.88;;;3.00;100.00
73651;BME280;61944;52.538;6.108;2023-02-28T04:23:45;103111.91;;;2.93;100.00
73651;BME280;61944;52.538;6.108;2023-02-28T04:26:11;103110.00;;;2.98;100.00
73651;BME280;61944;52.538;6.108;2023-02-28T04:28:37;103109.44;;;2.91;100.00
73651;BME280;61944;52.538;6.108;2023-02-28T04:31:04;103111.13;;;3.02;100.00
73651;BME280;61944;52.538;6.108;2023-02-28T04:33:31;103113.88;;;3.08;100.00
73651;BME280;61944;52.538;6.108;2023-02-28T04:36:05;103113.09;;;3.12;100.00
73651;BME280;61944;52.538;6.108;2023-02-28T04:38:36;103108.34;;;3.08;100.00
73651;BME280;61944;52.538;6.108;2023-02-28T04:41:02;103114.44;;;3.04;100.00
73651;BME280;61944;52.538;6.108;2023-02-28T04:43:27;103110.25;;;2.92;100.00
73651;BME280;61944;52.538;6.108;2023-02-28T04:45:55;103109.75;;;3.00;100.00
73651;BME280;61944;52.538;6.108;2023-02-28T04:48:27;103104.38;;;2.78;100.00
73651;BME280;61944;52.538;6.108;2023-02-28T04:50:52;103106.59;;;2.76;100.00
73651;BME280;61944;52.538;6.108;2023-02-28T04:53:18;103116.09;;;2.95;100.00
73651;BME280;61944;52.538;6.108;2023-02-28T04:55:44;103118.25;;;2.83;100.00
73651;BME280;61944;52.538;6.108;2023-02-28T04:58:11;103112.88;;;2.56;100.00
73651;BME280;61944;52.538;6.108;2023-02-28T05:00:36;103118.22;;;2.73;100.00
73651;BME280;61944;52.538;6.108;2023-02-28T05:03:01;103130.69;;;2.85;100.00
73651;BME280;61944;52.538;6.108;2023-02-28T05:05:27;103123.28;;;2.96;100.00
73651;BME280;61944;52.538;6.108;2023-02-28T05:07:52;103126.47;;;2.68;100.00
73651;BME280;61944;52.538;6.108;2023-02-28T05:10:19;103120.38;;;2.65;100.00
73651;BME280;61944;52.538;6.108;2023-02-28T05:12:44;103124.78;;;2.61;100.00
73651;BME280;61944;52.538;6.108;2023-02-28T05:15:13;103122.03;;;2.61;100.00
73651;BME280;61944;52.538;6.108;2023-02-28T05:17:39;103122.59;;;2.69;100.00
73651;BME280;61944;52.538;6.108;2023-02-28T05:20:05;103115.59;;;2.51;100.00
73651;BME280;61944;52.538;6.108;2023-02-28T05:22:30;103127.28;;;2.63;100.00
73651;BME280;61944;52.538;6.108;2023-02-28T05:24:56;103127.06;;;2.75;100.00
73651;BME280;61944;52.538;6.108;2023-02-28T05:27:21;103138.13;;;2.75;100.00
73651;BME280;61944;52.538;6.108;2023-02-28T05:29:46;103134.25;;;2.76;100.00
73651;BME280;61944;52.538;6.108;2023-02-28T05:32:12;103130.16;;;2.83;100.00
73651;BME280;61944;52.538;6.108;2023-02-28T05:34:38;103128.97;;;2.69;100.00
73651;BME280;61944;52.538;6.108;2023-02-28T05:37:05;103137.81;;;2.66;100.00
73651;BME280;61944;52.538;6.108;2023-02-28T05:39:31;103133.72;;;2.79;100.00
73651;BME280;61944;52.538;6.108;2023-02-28T05:41:56;103135.66;;;2.78;100.00
73651;BME280;61944;52.538;6.108;2023-02-28T05:44:22;103131.78;;;2.74;100.00
73651;BME280;61944;52.538;6.108;2023-02-28T05:46:47;103133.69;;;2.74;100.00
73651;BME280;61944;52.538;6.108;2023-02-28T05:49:12;103135.94;;;2.77;100.00
73651;BME280;61944;52.538;6.108;2023-02-28T05:51:38;103129.50;;;2.66;100.00
73651;BME280;61944;52.538;6.108;2023-02-28T05:54:05;103129.28;;;2.73;100.00
73651;BME280;61944;52.538;6.108;2023-02-28T05:56:30;103124.03;;;2.81;100.00
73651;BME280;61944;52.538;6.108;2023-02-28T05:58:56;103122.34;;;2.75;100.00
73651;BME280;61944;52.538;6.108;2023-02-28T06:01:41;103120.47;;;2.81;100.00
73651;BME280;61944;52.538;6.108;2023-02-28T06:04:14;103125.38;;;2.74;100.00
73651;BME280;61944;52.538;6.108;2023-02-28T06:06:49;103126.75;;;2.71;100.00
73651;BME280;61944;52.538;6.108;2023-02-28T06:09:15;103125.94;;;2.71;100.00
73651;BME280;61944;52.538;6.108;2023-02-28T06:11:41;103135.63;;;2.73;100.00
73651;BME280;61944;52.538;6.108;2023-02-28T06:14:07;103129.22;;;2.68;100.00
73651;BME280;61944;52.538;6.108;2023-02-28T06:16:34;103130.66;;;2.70;100.00
73651;BME280;61944;52.538;6.108;2023-02-28T06:19:02;103130.28;;;2.56;100.00
73651;BME280;61944;52.538;6.108;2023-02-28T06:21:28;103124.22;;;2.59;100.00
73651;BME280;61944;52.538;6.108;2023-02-28T06:23:55;103130.84;;;2.63;100.00
73651;BME280;61944;52.538;6.108;2023-02-28T06:26:21;103127.03;;;2.70;100.00
73651;BME280;61944;52.538;6.108;2023-02-28T06:28:46;103133.66;;;2.69;100.00
73651;BME280;61944;52.538;6.108;2023-02-28T06:31:14;103137.81;;;2.66;100.00
73651;BME280;61944;52.538;6.108;2023-02-28T06:33:41;103142.47;;;2.55;100.00
73651;BME280;61944;52.538;6.108;2023-02-28T06:36:08;103154.66;;;2.59;100.00
73651;BME280;61944;52.538;6.108;2023-02-28T06:38:33;103146.09;;;2.66;100.00
73651;BME280;61944;52.538;6.108;2023-02-28T06:41:00;103134.38;;;2.49;100.00
73651;BME280;61944;52.538;6.108;2023-02-28T06:43:31;103141.66;;;2.60;100.00
73651;BME280;61944;52.538;6.108;2023-02-28T06:46:01;103148.63;;;2.73;100.00
73651;BME280;61944;52.538;6.108;2023-02-28T06:48:27;103154.97;;;2.73;100.00
73651;BME280;61944;52.538;6.108;2023-02-28T06:51:08;103156.31;;;2.65;100.00
73651;BME280;61944;52.538;6.108;2023-02-28T06:53:34;103164.84;;;2.59;100.00
73651;BME280;61944;52.538;6.108;2023-02-28T06:56:03;103167.09;;;2.62;100.00
73651;BME280;61944;52.538;6.108;2023-02-28T06:58:29;103163.78;;;2.65;100.00
73651;BME280;61944;52.538;6.108;2023-02-28T07:00:54;103173.50;;;2.73;100.00
73651;BME280;61944;52.538;6.108;2023-02-28T07:03:19;103167.38;;;2.65;100.00
73651;BME280;61944;52.538;6.108;2023-02-28T07:05:45;103161.81;;;2.60;100.00
73651;BME280;61944;52.538;6.108;2023-02-28T07:08:11;103166.28;;;2.61;100.00
73651;BME280;61944;52.538;6.108;2023-02-28T07:10:40;103167.28;;;2.50;100.00
73651;BME280;61944;52.538;6.108;2023-02-28T07:13:07;103179.00;;;2.68;100.00
73651;BME280;61944;52.538;6.108;2023-02-28T07:15:34;103161.84;;;2.65;100.00
73651;BME280;61944;52.538;6.108;2023-02-28T07:17:59;103149.44;;;2.68;100.00
73651;BME280;61944;52.538;6.108;2023-02-28T07:20:24;103156.88;;;2.62;100.00
73651;BME280;61944;52.538;6.108;2023-02-28T07:22:50;103172.06;;;2.65;100.00
73651;BME280;61944;52.538;6.108;2023-02-28T07:25:25;103176.78;;;2.64;100.00
73651;BME280;61944;52.538;6.108;2023-02-28T07:27:51;103190.63;;;2.70;100.00
73651;BME280;61944;52.538;6.108;2023-02-28T07:30:17;103190.63;;;2.70;100.00
73651;BME280;61944;52.538;6.108;2023-02-28T07:32:42;103192.81;;;2.68;100.00
73651;BME280;61944;52.538;6.108;2023-02-28T07:35:08;103186.53;;;2.72;100.00
73651;BME280;61944;52.538;6.108;2023-02-28T07:37:33;103185.66;;;2.67;100.00
73651;BME280;61944;52.538;6.108;2023-02-28T07:40:06;103175.66;;;2.65;100.00
73651;BME280;61944;52.538;6.108;2023-02-28T07:42:37;103184.88;;;2.76;100.00
73651;BME280;61944;52.538;6.108;2023-02-28T07:45:03;103181.19;;;2.60;100.00
73651;BME280;61944;52.538;6.108;2023-02-28T07:47:29;103186.16;;;2.63;100.00
73651;BME280;61944;52.538;6.108;2023-02-28T07:49:55;103174.31;;;2.68;100.00
73651;BME280;61944;52.538;6.108;2023-02-28T07:52:20;103178.41;;;2.55;100.00
73651;BME280;61944;52.538;6.108;2023-02-28T07:54:45;103188.41;;;2.61;100.00
73651;BME280;61944;52.538;6.108;2023-02-28T07:57:11;103201.69;;;2.70;100.00
73651;BME280;61944;52.538;6.108;2023-02-28T07:59:36;103192.31;;;2.71;100.00
73651;BME280;61944;52.538;6.108;2023-02-28T08:02:01;103179.56;;;2.70;100.00
73651;BME280;61944;52.538;6.108;2023-02-28T08:04:27;103186.00;;;2.80;100.00
73651;BME280;61944;52.538;6.108;2023-02-28T08:06:52;103194.06;;;2.87;100.00
73651;BME280;61944;52.538;6.108;2023-02-28T08:09:18;103189.38;;;2.93;100.00
73651;BME280;61944;52.538;6.108;2023-02-28T08:11:44;103190.22;;;2.98;100.00
73651;BME280;61944;52.538;6.108;2023-02-28T08:14:09;103190.63;;;2.70;100.00
73651;BME280;61944;52.538;6.108;2023-02-28T08:16:34;103191.81;;;2.84;100.00
73651;BME280;61944;52.538;6.108;2023-02-28T08:19:00;103201.28;;;2.93;100.00
73651;BME280;61944;52.538;6.108;2023-02-28T08:21:25;103199.91;;;2.96;100.00
73651;BME280;61944;52.538;6.108;2023-02-28T08:23:51;103204.06;;;2.98;100.00
73651;BME280;61944;52.538;6.108;2023-02-28T08:26:17;103206.84;;;3.03;100.00
73651;BME280;61944;52.538;6.108;2023-02-28T08:28:43;103204.66;;;3.05;100.00
73651;BME280;61944;52.538;6.108;2023-02-28T08:31:13;103203.44;;;2.81;100.00
73651;BME280;61944;52.538;6.108;2023-02-28T08:33:40;103203.50;;;3.01;100.00
73651;BME280;61944;52.538;6.108;2023-02-28T08:36:06;103202.16;;;3.04;100.00
73651;BME280;61944;52.538;6.108;2023-02-28T08:38:32;103206.47;;;2.84;100.00
73651;BME280;61944;52.538;6.108;2023-02-28T08:41:03;103205.09;;;2.82;100.00
73651;BME280;61944;52.538;6.108;2023-02-28T08:43:30;103213.47;;;2.97;100.00
73651;BME280;61944;52.538;6.108;2023-02-28T08:45:56;103204.44;;;2.70;100.00
73651;BME280;61944;52.538;6.108;2023-02-28T08:48:23;103211.56;;;3.03;100.00
73651;BME280;61944;52.538;6.108;2023-02-28T08:51:03;103209.16;;;3.17;100.00
73651;BME280;61944;52.538;6.108;2023-02-28T08:53:29;103216.84;;;3.04;100.00
73651;BME280;61944;52.538;6.108;2023-02-28T08:56:09;103206.53;;;2.90;100.00
73651;BME280;61944;52.538;6.108;2023-02-28T08:58:35;103214.63;;;3.12;100.00
73651;BME280;61944;52.538;6.108;2023-02-28T09:01:06;103211.31;;;3.10;100.00
73651;BME280;61944;52.538;6.108;2023-02-28T09:03:32;103208.78;;;2.98;100.00
73651;BME280;61944;52.538;6.108;2023-02-28T09:05:59;103213.47;;;2.97;100.00
73651;BME280;61944;52.538;6.108;2023-02-28T09:08:26;103213.50;;;3.08;100.00
73651;BME280;61944;52.538;6.108;2023-02-28T09:10:52;103205.25;;;3.13;100.00
73651;BME280;61944;52.538;6.108;2023-02-28T09:13:18;103213.00;;;3.16;100.00
73651;BME280;61944;52.538;6.108;2023-02-28T09:15:44;103209.75;;;3.29;100.00
73651;BME280;61944;52.538;6.108;2023-02-28T09:18:10;103213.59;;;3.28;100.00
73651;BME280;61944;52.538;6.108;2023-02-28T09:20:40;103217.53;;;3.37;98.55
73651;BME280;61944;52.538;6.108;2023-02-28T09:23:07;103213.66;;;3.38;98.31
73651;BME280;61944;52.538;6.108;2023-02-28T09:25:32;103214.47;;;3.39;96.78
73651;BME280;61944;52.538;6.108;2023-02-28T09:27:58;103217.00;;;3.51;92.82
73651;BME280;61944;52.538;6.108;2023-02-28T09:30:23;103211.19;;;3.47;95.55
73651;BME280;61944;52.538;6.108;2023-02-28T09:32:49;103213.69;;;3.49;91.24
73651;BME280;61944;52.538;6.108;2023-02-28T09:35:18;103217.31;;;3.54;90.85
73651;BME280;61944;52.538;6.108;2023-02-28T09:37:43;103213.72;;;3.59;91.14
73651;BME280;61944;52.538;6.108;2023-02-28T09:40:10;103212.06;;;3.68;91.99
73651;BME280;61944;52.538;6.108;2023-02-28T09:42:35;103212.63;;;3.75;86.29
73651;BME280;61944;52.538;6.108;2023-02-28T09:45:06;103222.34;;;3.78;81.14
73651;BME280;61944;52.538;6.108;2023-02-28T09:47:41;103213.19;;;3.82;79.00
73651;BME280;61944;52.538;6.108;2023-02-28T09:52:41;103212.13;;;3.99;72.72
73651;BME280;61944;52.538;6.108;2023-02-28T09:55:35;103208.81;;;4.07;71.38
73651;BME280;61944;52.538;6.108;2023-02-28T09:58:02;103215.13;;;3.87;69.46
73651;BME280;61944;52.538;6.108;2023-02-28T10:00:37;103224.88;;;4.10;72.86
73651;BME280;61944;52.538;6.108;2023-02-28T10:03:35;103224.31;;;4.18;67.56
73651;BME280;61944;52.538;6.108;2023-02-28T10:06:14;103213.50;;;4.27;67.35
73651;BME280;61944;52.538;6.108;2023-02-28T10:11:14;103210.19;;;4.25;69.85
73651;BME280;61944;52.538;6.108;2023-02-28T10:14:00;103212.94;;;4.04;71.34
73651;BME280;61944;52.538;6.108;2023-02-28T10:16:41;103208.22;;;4.15;73.36
73651;BME280;61944;52.538;6.108;2023-02-28T10:19:15;103211.56;;;4.27;72.08
73651;BME280;61944;52.538;6.108;2023-02-28T10:21:59;103220.97;;;4.32;72.83
73651;BME280;61944;52.538;6.108;2023-02-28T10:24:47;103227.66;;;4.41;72.32
73651;BME280;61944;52.538;6.108;2023-02-28T10:29:43;103208.22;;;4.15;72.93
73651;BME280;61944;52.538;6.108;2023-02-28T10:32:11;103204.63;;;4.15;77.81
73651;BME280;61944;52.538;6.108;2023-02-28T10:34:40;103216.00;;;4.23;68.58
73651;BME280;61944;52.538;6.108;2023-02-28T10:37:05;103212.09;;;4.30;70.29
73651;BME280;61944;52.538;6.108;2023-02-28T10:39:45;103204.09;;;4.07;71.03
73651;BME280;61944;52.538;6.108;2023-02-28T10:42:26;103206.84;;;4.43;70.78
73651;BME280;61944;52.538;6.108;2023-02-28T10:45:15;103203.22;;;4.48;67.24
73651;BME280;61944;52.538;6.108;2023-02-28T10:47:55;103200.41;;;4.74;65.89
73651;BME280;61944;52.538;6.108;2023-02-28T10:50:44;103205.13;;;4.73;64.52
73651;BME280;61944;52.538;6.108;2023-02-28T10:58:48;103202.13;;;4.34;62.45
73651;BME280;61944;52.538;6.108;2023-02-28T11:01:44;103196.56;;;4.44;63.06
73651;BME280;61944;52.538;6.108;2023-02-28T11:07:18;103186.31;;;4.34;66.51
73651;BME280;61944;52.538;6.108;2023-02-28T11:09:49;103192.16;;;4.27;67.11
73651;BME280;61944;52.538;6.108;2023-02-28T11:12:37;103197.41;;;4.34;67.68
73651;BME280;61944;52.538;6.108;2023-02-28T11:15:35;103184.63;;;4.64;66.75
73651;BME280;61944;52.538;6.108;2023-02-28T11:18:21;103176.75;;;4.97;66.59
73651;BME280;61944;52.538;6.108;2023-02-28T11:20:50;103175.56;;;5.08;66.10
73651;BME280;61944;52.538;6.108;2023-02-28T11:23:16;103177.00;;;5.00;69.44
73651;BME280;61944;52.538;6.108;2023-02-28T11:25:48;103174.75;;;5.07;63.86
73651;BME280;61944;52.538;6.108;2023-02-28T11:28:35;103169.16;;;5.23;65.85
73651;BME280;61944;52.538;6.108;2023-02-28T11:31:03;103179.72;;;5.16;62.45
73651;BME280;61944;52.538;6.108;2023-02-28T11:36:10;103169.03;;;5.43;62.70
73651;BME280;61944;52.538;6.108;2023-02-28T11:38:36;103162.47;;;5.24;61.40
73651;BME280;61944;52.538;6.108;2023-02-28T11:41:17;103168.88;;;5.19;65.89
73651;BME280;61944;52.538;6.108;2023-02-28T11:49:30;103156.16;;;5.58;66.00
73651;BME280;61944;52.538;6.108;2023-02-28T11:52:48;103160.84;;;5.62;64.51
73651;BME280;61944;52.538;6.108;2023-02-28T11:54:58;103156.63;;;5.70;63.36
73651;BME280;61944;52.538;6.108;2023-02-28T12:05:48;103141.72;;;5.61;62.67
73651;BME280;61944;52.538;6.108;2023-02-28T12:19:41;103147.31;;;5.06;66.46
73651;BME280;61944;52.538;6.108;2023-02-28T12:22:25;103147.63;;;5.44;69.52
73651;BME280;61944;52.538;6.108;2023-02-28T12:27:52;103138.22;;;5.79;63.62
73651;BME280;61944;52.538;6.108;2023-02-28T12:30:27;103136.88;;;5.32;62.12
73651;BME280;61944;52.538;6.108;2023-02-28T12:33:05;103128.91;;;5.15;66.10
73651;BME280;61944;52.538;6.108;2023-02-28T12:35:54;103140.63;;;5.07;65.63
73651;BME280;61944;52.538;6.108;2023-02-28T12:38:41;103134.59;;;5.39;63.83
73651;BME280;61944;52.538;6.108;2023-02-28T12:41:22;103126.97;;;5.21;63.59
73651;BME280;61944;52.538;6.108;2023-02-28T12:44:00;103130.63;;;5.90;61.90
73651;BME280;61944;52.538;6.108;2023-02-28T12:46:32;103122.50;;;5.25;65.25
73651;BME280;61944;52.538;6.108;2023-02-28T12:49:05;103126.97;;;5.16;65.90
73651;BME280;61944;52.538;6.108;2023-02-28T12:51:32;103116.84;;;5.35;66.04
73651;BME280;61944;52.538;6.108;2023-02-28T12:54:25;103117.13;;;5.73;64.56
73651;BME280;61944;52.538;6.108;2023-02-28T12:57:12;103109.19;;;5.61;65.08
73651;BME280;61944;52.538;6.108;2023-02-28T12:59:48;103113.59;;;6.02;62.90
73651;BME280;61944;52.538;6.108;2023-02-28T13:10:52;103098.00;;;6.06;63.95
73651;BME280;61944;52.538;6.108;2023-02-28T13:13:23;103097.19;;;5.26;63.88
73651;BME280;61944;52.538;6.108;2023-02-28T13:21:06;103090.22;;;5.29;68.15
73651;BME280;61944;52.538;6.108;2023-02-28T13:23:41;103083.03;;;5.62;66.18
73651;BME280;61944;52.538;6.108;2023-02-28T13:39:46;103076.25;;;5.44;61.80
73651;BME280;61944;52.538;6.108;2023-02-28T13:42:35;103070.69;;;5.44;63.10
73651;BME280;61944;52.538;6.108;2023-02-28T13:47:33;103076.00;;;5.41;64.84
73651;BME280;61944;52.538;6.108;2023-02-28T13:56:27;103078.84;;;5.65;61.13
73651;BME280;61944;52.538;6.108;2023-02-28T13:59:20;103071.44;;;5.95;60.38
73651;BME280;61944;52.538;6.108;2023-02-28T14:07:09;103058.72;;;6.13;63.89
73651;BME280;61944;52.538;6.108;2023-02-28T14:09:46;103068.16;;;5.82;63.52
73651;BME280;61944;52.538;6.108;2023-02-28T14:18:31;103060.13;;;5.81;62.23
73651;BME280;61944;52.538;6.108;2023-02-28T14:21:02;103056.09;;;6.26;62.97
73651;BME280;61944;52.538;6.108;2023-02-28T14:26:48;103057.47;;;6.00;63.05
73651;BME280;61944;52.538;6.108;2023-02-28T14:30:10;103064.09;;;6.04;60.88
73651;BME280;61944;52.538;6.108;2023-02-28T14:35:10;103058.34;;;5.61;64.62
73651;BME280;61944;52.538;6.108;2023-02-28T14:37:39;103057.19;;;6.01;63.83
73651;BME280;61944;52.538;6.108;2023-02-28T14:40:17;103054.16;;;5.98;60.28
73651;BME280;61944;52.538;6.108;2023-02-28T14:42:48;103054.72;;;5.60;63.86
73651;BME280;61944;52.538;6.108;2023-02-28T14:45:20;103056.72;;;5.84;71.22
73651;BME280;61944;52.538;6.108;2023-02-28T14:47:46;103046.88;;;6.02;61.13
73651;BME280;61944;52.538;6.108;2023-02-28T14:50:24;103056.41;;;5.90;63.31
73651;BME280;61944;52.538;6.108;2023-02-28T14:52:55;103058.69;;;5.83;63.04
73651;BME280;61944;52.538;6.108;2023-02-28T14:55:26;103054.91;;;5.74;70.19
73651;BME280;61944;52.538;6.108;2023-02-28T14:57:55;103054.19;;;5.58;62.96
73651;BME280;61944;52.538;6.108;2023-02-28T15:00:22;103061.97;;;5.56;64.03
73651;BME280;61944;52.538;6.108;2023-02-28T15:02:48;103053.28;;;5.68;62.82
73651;BME280;61944;52.538;6.108;2023-02-28T15:07:46;103062.38;;;5.39;65.51
73651;BME280;61944;52.538;6.108;2023-02-28T15:13:06;103051.53;;;5.77;66.63
73651;BME280;61944;52.538;6.108;2023-02-28T15:18:37;103037.69;;;5.72;65.63
73651;BME280;61944;52.538;6.108;2023-02-28T15:21:11;103042.72;;;5.65;67.68
73651;BME280;61944;52.538;6.108;2023-02-28T15:23:39;103047.63;;;5.78;66.91
73651;BME280;61944;52.538;6.108;2023-02-28T15:26:06;103042.44;;;5.66;64.60
73651;BME280;61944;52.538;6.108;2023-02-28T15:28:31;103036.03;;;5.37;63.61